sensor_id;sensor_type;location;lat;lon;timestamp;P1;durP1;ratioP1;P2;durP2;ratioP2
15706;SDS011;7953;54.302;10.128;2024-03-25T00:01:36;4.57;;;3.13;;
15706;SDS011;7953;54.302;10.128;2024-03-25T00:04:02;4.07;;;2.80;;
15706;SDS011;7953;54.302;10.128;2024-03-25T00:06:29;3.17;;;2.83;;
15706;SDS011;7953;54.302;10.128;2024-03-25T00:08:58;3.37;;;2.93;;
15706;SDS011;7953;54.302;10.128;2024-03-25T00:11:26;4.50;;;2.63;;
15706;SDS011;7953;54.302;10.128;2024-03-25T00:13:52;4.57;;;3.20;;
15706;SDS011;7953;54.302;10.128;2024-03-25T00:16:19;4.33;;;2.83;;
15706;SDS011;7953;54.302;10.128;2024-03-25T00:18:45;3.70;;;2.83;;
15706;SDS011;7953;54.302;10.128;2024-03-25T00:21:11;7.20;;;3.33;;
15706;SDS011;7953;54.302;10.128;2024-03-25T00:23:37;5.30;;;2.93;;
15706;SDS011;7953;54.302;10.128;2024-03-25T00:26:04;2.70;;;2.50;;
15706;SDS011;7953;54.302;10.128;2024-03-25T00:28:31;3.33;;;3.00;;
15706;SDS011;7953;54.302;10.128;2024-03-25T00:30:58;5.03;;;2.97;;
15706;SDS011;7953;54.302;10.128;2024-03-25T00:33:24;3.03;;;2.80;;
15706;SDS011;7953;54.302;10.128;2024-03-25T00:35:51;3.80;;;2.70;;
15706;SDS011;7953;54.302;10.128;2024-03-25T00:38:17;3.80;;;2.80;;
15706;SDS011;7953;54.302;10.128;2024-03-25T00:40:44;4.07;;;3.00;;
15706;SDS011;7953;54.302;10.128;2024-03-25T00:43:10;3.30;;;3.00;;
15706;SDS011;7953;54.302;10.128;2024-03-25T00:45:38;3.67;;;2.80;;
15706;SDS011;7953;54.302;10.128;2024-03-25T00:48:04;3.80;;;2.27;;
15706;SDS011;7953;54.302;10.128;2024-03-25T00:50:31;2.30;;;2.10;;
15706;SDS011;7953;54.302;10.128;2024-03-25T00:52:57;2.60;;;2.40;;
15706;SDS011;7953;54.302;10.128;2024-03-25T00:55:24;4.50;;;2.77;;
15706;SDS011;7953;54.302;10.128;2024-03-25T00:57:50;3.50;;;2.33;;
15706;SDS011;7953;54.302;10.128;2024-03-25T01:00:17;4.17;;;2.83;;
15706;SDS011;7953;54.302;10.128;2024-03-25T01:02:44;3.20;;;2.63;;
15706;SDS011;7953;54.302;10.128;2024-03-25T01:05:12;3.33;;;3.03;;
15706;SDS011;7953;54.302;10.128;2024-03-25T01:07:38;4.40;;;3.00;;
15706;SDS011;7953;54.302;10.128;2024-03-25T01:10:04;3.13;;;2.87;;
15706;SDS011;7953;54.302;10.128;2024-03-25T01:12:31;5.80;;;3.07;;
15706;SDS011;7953;54.302;10.128;2024-03-25T01:14:58;3.40;;;2.90;;
15706;SDS011;7953;54.302;10.128;2024-03-25T01:17:24;5.07;;;3.03;;
15706;SDS011;7953;54.302;10.128;2024-03-25T01:19:52;3.87;;;2.80;;
15706;SDS011;7953;54.302;10.128;2024-03-25T01:22:18;4.47;;;3.03;;
15706;SDS011;7953;54.302;10.128;2024-03-25T01:24:45;3.80;;;3.30;;
15706;SDS011;7953;54.302;10.128;2024-03-25T01:27:10;4.47;;;3.10;;
15706;SDS011;7953;54.302;10.128;2024-03-25T01:29:37;4.20;;;3.40;;
15706;SDS011;7953;54.302;10.128;2024-03-25T01:32:03;8.77;;;3.70;;
15706;SDS011;7953;54.302;10.128;2024-03-25T01:34:30;5.47;;;3.40;;
15706;SDS011;7953;54.302;10.128;2024-03-25T01:36:57;5.90;;;3.23;;
15706;SDS011;7953;54.302;10.128;2024-03-25T01:39:24;5.50;;;3.50;;
15706;SDS011;7953;54.302;10.128;2024-03-25T01:41:50;6.13;;;3.60;;
15706;SDS011;7953;54.302;10.128;2024-03-25T01:44:17;4.07;;;3.43;;
15706;SDS011;7953;54.302;10.128;2024-03-25T01:46:43;6.17;;;3.60;;
15706;SDS011;7953;54.302;10.128;2024-03-25T01:49:09;5.07;;;3.40;;
15706;SDS011;7953;54.302;10.128;2024-03-25T01:51:36;7.07;;;3.53;;
15706;SDS011;7953;54.302;10.128;2024-03-25T01:54:06;5.93;;;3.83;;
15706;SDS011;7953;54.302;10.128;2024-03-25T01:56:33;5.13;;;4.00;;
15706;SDS011;7953;54.302;10.128;2024-03-25T01:59:00;5.03;;;3.50;;
15706;SDS011;7953;54.302;10.128;2024-03-25T02:01:26;5.70;;;3.80;;
15706;SDS011;7953;54.302;10.128;2024-03-25T02:03:54;5.50;;;4.47;;
15706;SDS011;7953;54.302;10.128;2024-03-25T02:06:21;5.20;;;3.97;;
15706;SDS011;7953;54.302;10.128;2024-03-25T02:08:50;4.97;;;3.93;;
15706;SDS011;7953;54.302;10.128;2024-03-25T02:11:19;5.50;;;3.77;;
15706;SDS011;7953;54.302;10.128;2024-03-25T02:13:46;5.87;;;4.00;;
15706;SDS011;7953;54.302;10.128;2024-03-25T02:16:12;5.60;;;3.60;;
15706;SDS011;7953;54.302;10.128;2024-03-25T02:18:39;5.10;;;3.57;;
15706;SDS011;7953;54.302;10.128;2024-03-25T02:21:04;4.60;;;4.20;;
15706;SDS011;7953;54.302;10.128;2024-03-25T02:23:31;7.43;;;3.77;;
15706;SDS011;7953;54.302;10.128;2024-03-25T02:26:00;5.53;;;3.43;;
15706;SDS011;7953;54.302;10.128;2024-03-25T02:28:28;7.93;;;3.93;;
15706;SDS011;7953;54.302;10.128;2024-03-25T02:30:53;7.37;;;3.80;;
15706;SDS011;7953;54.302;10.128;2024-03-25T02:33:20;7.77;;;3.53;;
15706;SDS011;7953;54.302;10.128;2024-03-25T02:35:46;9.33;;;4.37;;
15706;SDS011;7953;54.302;10.128;2024-03-25T02:38:13;8.60;;;4.03;;
15706;SDS011;7953;54.302;10.128;2024-03-25T02:40:40;6.93;;;4.67;;
15706;SDS011;7953;54.302;10.128;2024-03-25T02:43:09;9.13;;;3.73;;
15706;SDS011;7953;54.302;10.128;2024-03-25T02:45:36;4.83;;;3.97;;
15706;SDS011;7953;54.302;10.128;2024-03-25T02:48:03;7.90;;;4.30;;
15706;SDS011;7953;54.302;10.128;2024-03-25T02:50:30;5.90;;;4.07;;
15706;SDS011;7953;54.302;10.128;2024-03-25T02:52:57;4.73;;;3.80;;
15706;SDS011;7953;54.302;10.128;2024-03-25T02:55:23;7.77;;;4.53;;
15706;SDS011;7953;54.302;10.128;2024-03-25T02:57:49;8.37;;;4.87;;
15706;SDS011;7953;54.302;10.128;2024-03-25T03:00:17;6.50;;;4.33;;
15706;SDS011;7953;54.302;10.128;2024-03-25T03:02:43;8.07;;;4.80;;
15706;SDS011;7953;54.302;10.128;2024-03-25T03:05:10;8.10;;;3.90;;
15706;SDS011;7953;54.302;10.128;2024-03-25T03:07:36;6.30;;;3.90;;
15706;SDS011;7953;54.302;10.128;2024-03-25T03:10:03;6.53;;;3.93;;
15706;SDS011;7953;54.302;10.128;2024-03-25T03:12:29;10.63;;;4.30;;
15706;SDS011;7953;54.302;10.128;2024-03-25T03:14:56;9.63;;;4.67;;
15706;SDS011;7953;54.302;10.128;2024-03-25T03:17:23;5.30;;;3.63;;
15706;SDS011;7953;54.302;10.128;2024-03-25T03:19:49;4.87;;;3.90;;
15706;SDS011;7953;54.302;10.128;2024-03-25T03:22:15;7.77;;;4.43;;
15706;SDS011;7953;54.302;10.128;2024-03-25T03:24:42;6.60;;;3.77;;
15706;SDS011;7953;54.302;10.128;2024-03-25T03:27:08;9.90;;;4.13;;
15706;SDS011;7953;54.302;10.128;2024-03-25T03:29:34;7.30;;;3.53;;
15706;SDS011;7953;54.302;10.128;2024-03-25T03:32:00;7.83;;;3.83;;
15706;SDS011;7953;54.302;10.128;2024-03-25T03:34:28;9.80;;;4.30;;
15706;SDS011;7953;54.302;10.128;2024-03-25T03:36:54;11.13;;;4.27;;
15706;SDS011;7953;54.302;10.128;2024-03-25T03:39:21;7.67;;;3.20;;
15706;SDS011;7953;54.302;10.128;2024-03-25T03:41:47;5.10;;;3.47;;
15706;SDS011;7953;54.302;10.128;2024-03-25T03:44:13;7.27;;;3.60;;
15706;SDS011;7953;54.302;10.128;2024-03-25T03:46:40;6.93;;;3.00;;
15706;SDS011;7953;54.302;10.128;2024-03-25T03:49:07;8.63;;;2.70;;
15706;SDS011;7953;54.302;10.128;2024-03-25T03:51:34;6.50;;;3.93;;
15706;SDS011;7953;54.302;10.128;2024-03-25T03:54:01;4.33;;;2.43;;
15706;SDS011;7953;54.302;10.128;2024-03-25T03:56:27;7.90;;;3.83;;
15706;SDS011;7953;54.302;10.128;2024-03-25T03:58:53;6.63;;;3.20;;
15706;SDS011;7953;54.302;10.128;2024-03-25T04:01:19;4.57;;;2.53;;
15706;SDS011;7953;54.302;10.128;2024-03-25T04:03:46;4.70;;;2.30;;
15706;SDS011;7953;54.302;10.128;2024-03-25T04:06:12;4.80;;;3.00;;
15706;SDS011;7953;54.302;10.128;2024-03-25T04:08:41;6.93;;;2.67;;
15706;SDS011;7953;54.302;10.128;2024-03-25T04:11:07;3.40;;;2.63;;
15706;SDS011;7953;54.302;10.128;2024-03-25T04:13:35;7.23;;;2.60;;
15706;SDS011;7953;54.302;10.128;2024-03-25T04:16:01;3.37;;;2.43;;
15706;SDS011;7953;54.302;10.128;2024-03-25T04:18:29;3.83;;;2.63;;
15706;SDS011;7953;54.302;10.128;2024-03-25T04:20:55;4.10;;;3.10;;
15706;SDS011;7953;54.302;10.128;2024-03-25T04:23:22;5.47;;;3.20;;
15706;SDS011;7953;54.302;10.128;2024-03-25T04:25:49;3.20;;;2.53;;
15706;SDS011;7953;54.302;10.128;2024-03-25T04:28:16;6.10;;;2.67;;
15706;SDS011;7953;54.302;10.128;2024-03-25T04:30:42;4.20;;;2.30;;
15706;SDS011;7953;54.302;10.128;2024-03-25T04:33:09;4.40;;;2.57;;
15706;SDS011;7953;54.302;10.128;2024-03-25T04:35:35;5.87;;;2.50;;
15706;SDS011;7953;54.302;10.128;2024-03-25T04:38:02;3.07;;;2.60;;
15706;SDS011;7953;54.302;10.128;2024-03-25T04:40:28;4.87;;;2.30;;
15706;SDS011;7953;54.302;10.128;2024-03-25T04:42:55;3.93;;;2.20;;
15706;SDS011;7953;54.302;10.128;2024-03-25T04:45:21;6.30;;;2.10;;
15706;SDS011;7953;54.302;10.128;2024-03-25T04:47:47;3.10;;;2.10;;
15706;SDS011;7953;54.302;10.128;2024-03-25T04:50:13;4.23;;;2.13;;
15706;SDS011;7953;54.302;10.128;2024-03-25T04:52:39;3.97;;;2.50;;
15706;SDS011;7953;54.302;10.128;2024-03-25T04:55:05;3.70;;;2.03;;
15706;SDS011;7953;54.302;10.128;2024-03-25T04:57:31;5.37;;;2.13;;
15706;SDS011;7953;54.302;10.128;2024-03-25T04:59:58;4.50;;;2.13;;
15706;SDS011;7953;54.302;10.128;2024-03-25T05:02:24;1.83;;;1.70;;
15706;SDS011;7953;54.302;10.128;2024-03-25T05:04:50;2.40;;;1.90;;
15706;SDS011;7953;54.302;10.128;2024-03-25T05:07:16;3.97;;;1.97;;
15706;SDS011;7953;54.302;10.128;2024-03-25T05:09:41;4.40;;;2.70;;
15706;SDS011;7953;54.302;10.128;2024-03-25T05:12:08;3.70;;;2.27;;
15706;SDS011;7953;54.302;10.128;2024-03-25T05:14:33;6.03;;;2.10;;
15706;SDS011;7953;54.302;10.128;2024-03-25T05:17:01;3.40;;;1.83;;
15706;SDS011;7953;54.302;10.128;2024-03-25T05:19:26;7.10;;;2.13;;
15706;SDS011;7953;54.302;10.128;2024-03-25T05:21:52;3.07;;;2.10;;
15706;SDS011;7953;54.302;10.128;2024-03-25T05:24:18;3.10;;;1.80;;
15706;SDS011;7953;54.302;10.128;2024-03-25T05:26:44;3.27;;;2.57;;
15706;SDS011;7953;54.302;10.128;2024-03-25T05:29:10;1.87;;;1.60;;
15706;SDS011;7953;54.302;10.128;2024-03-25T05:31:36;5.93;;;2.37;;
15706;SDS011;7953;54.302;10.128;2024-03-25T05:34:03;4.87;;;1.80;;
15706;SDS011;7953;54.302;10.128;2024-03-25T05:36:29;4.37;;;2.10;;
15706;SDS011;7953;54.302;10.128;2024-03-25T05:38:55;3.17;;;1.57;;
15706;SDS011;7953;54.302;10.128;2024-03-25T05:41:21;4.90;;;2.33;;
15706;SDS011;7953;54.302;10.128;2024-03-25T05:43:47;2.00;;;1.80;;
15706;SDS011;7953;54.302;10.128;2024-03-25T05:46:13;2.27;;;1.70;;
15706;SDS011;7953;54.302;10.128;2024-03-25T05:48:38;2.13;;;1.73;;
15706;SDS011;7953;54.302;10.128;2024-03-25T05:51:06;3.20;;;2.13;;
15706;SDS011;7953;54.302;10.128;2024-03-25T05:53:32;3.90;;;2.27;;
15706;SDS011;7953;54.302;10.128;2024-03-25T05:55:59;3.80;;;1.97;;
15706;SDS011;7953;54.302;10.128;2024-03-25T05:58:25;2.73;;;1.90;;
15706;SDS011;7953;54.302;10.128;2024-03-25T06:00:51;2.93;;;2.37;;
15706;SDS011;7953;54.302;10.128;2024-03-25T06:03:18;3.60;;;2.03;;
15706;SDS011;7953;54.302;10.128;2024-03-25T06:05:44;5.20;;;2.10;;
15706;SDS011;7953;54.302;10.128;2024-03-25T06:08:11;3.50;;;2.20;;
15706;SDS011;7953;54.302;10.128;2024-03-25T06:10:41;5.27;;;2.20;;
15706;SDS011;7953;54.302;10.128;2024-03-25T06:13:07;3.73;;;2.13;;
15706;SDS011;7953;54.302;10.128;2024-03-25T06:15:33;4.27;;;2.57;;
15706;SDS011;7953;54.302;10.128;2024-03-25T06:17:58;4.20;;;2.23;;
15706;SDS011;7953;54.302;10.128;2024-03-25T06:20:24;2.20;;;1.63;;
15706;SDS011;7953;54.302;10.128;2024-03-25T06:22:50;6.90;;;2.90;;
15706;SDS011;7953;54.302;10.128;2024-03-25T06:25:17;2.50;;;2.00;;
15706;SDS011;7953;54.302;10.128;2024-03-25T06:27:43;4.50;;;2.27;;
15706;SDS011;7953;54.302;10.128;2024-03-25T06:30:09;5.33;;;2.10;;
15706;SDS011;7953;54.302;10.128;2024-03-25T06:32:55;4.47;;;2.10;;
15706;SDS011;7953;54.302;10.128;2024-03-25T06:35:39;3.47;;;2.50;;
15706;SDS011;7953;54.302;10.128;2024-03-25T06:38:07;3.93;;;2.60;;
15706;SDS011;7953;54.302;10.128;2024-03-25T06:40:34;3.57;;;2.40;;
15706;SDS011;7953;54.302;10.128;2024-03-25T06:43:00;6.33;;;2.20;;
15706;SDS011;7953;54.302;10.128;2024-03-25T06:45:26;4.87;;;2.30;;
15706;SDS011;7953;54.302;10.128;2024-03-25T06:47:52;3.03;;;2.20;;
15706;SDS011;7953;54.302;10.128;2024-03-25T06:50:18;5.73;;;2.20;;
15706;SDS011;7953;54.302;10.128;2024-03-25T06:52:43;3.67;;;2.43;;
15706;SDS011;7953;54.302;10.128;2024-03-25T06:55:09;4.43;;;1.93;;
15706;SDS011;7953;54.302;10.128;2024-03-25T06:57:37;4.80;;;2.20;;
15706;SDS011;7953;54.302;10.128;2024-03-25T07:00:03;8.27;;;2.80;;
15706;SDS011;7953;54.302;10.128;2024-03-25T07:02:29;9.73;;;2.60;;
15706;SDS011;7953;54.302;10.128;2024-03-25T07:04:55;4.93;;;2.00;;
15706;SDS011;7953;54.302;10.128;2024-03-25T07:07:21;5.63;;;1.93;;
15706;SDS011;7953;54.302;10.128;2024-03-25T07:09:46;3.60;;;1.60;;
15706;SDS011;7953;54.302;10.128;2024-03-25T07:12:12;4.80;;;1.70;;
15706;SDS011;7953;54.302;10.128;2024-03-25T07:14:39;5.40;;;2.30;;
15706;SDS011;7953;54.302;10.128;2024-03-25T07:17:05;4.53;;;1.63;;
15706;SDS011;7953;54.302;10.128;2024-03-25T07:19:31;5.57;;;1.70;;
15706;SDS011;7953;54.302;10.128;2024-03-25T07:21:57;5.17;;;1.93;;
15706;SDS011;7953;54.302;10.128;2024-03-25T07:24:23;4.00;;;1.50;;
15706;SDS011;7953;54.302;10.128;2024-03-25T07:26:49;5.37;;;1.80;;
15706;SDS011;7953;54.302;10.128;2024-03-25T07:29:14;3.13;;;1.60;;
15706;SDS011;7953;54.302;10.128;2024-03-25T07:31:42;2.90;;;1.57;;
15706;SDS011;7953;54.302;10.128;2024-03-25T07:34:07;2.17;;;1.60;;
15706;SDS011;7953;54.302;10.128;2024-03-25T07:36:34;4.10;;;1.73;;
15706;SDS011;7953;54.302;10.128;2024-03-25T07:39:00;2.33;;;1.57;;
15706;SDS011;7953;54.302;10.128;2024-03-25T07:41:25;3.03;;;1.50;;
15706;SDS011;7953;54.302;10.128;2024-03-25T07:43:51;2.43;;;1.50;;
15706;SDS011;7953;54.302;10.128;2024-03-25T07:46:17;6.97;;;1.57;;
15706;SDS011;7953;54.302;10.128;2024-03-25T07:48:44;5.27;;;1.80;;
15706;SDS011;7953;54.302;10.128;2024-03-25T07:51:10;3.67;;;1.57;;
15706;SDS011;7953;54.302;10.128;2024-03-25T07:53:36;3.33;;;1.77;;
15706;SDS011;7953;54.302;10.128;2024-03-25T07:56:02;4.27;;;2.27;;
15706;SDS011;7953;54.302;10.128;2024-03-25T07:58:28;4.40;;;1.73;;
15706;SDS011;7953;54.302;10.128;2024-03-25T08:00:54;3.97;;;1.93;;
15706;SDS011;7953;54.302;10.128;2024-03-25T08:03:20;4.30;;;1.80;;
15706;SDS011;7953;54.302;10.128;2024-03-25T08:05:47;4.20;;;1.87;;
15706;SDS011;7953;54.302;10.128;2024-03-25T08:08:13;5.20;;;1.63;;
15706;SDS011;7953;54.302;10.128;2024-03-25T08:10:39;8.27;;;1.87;;
15706;SDS011;7953;54.302;10.128;2024-03-25T08:13:05;5.23;;;1.97;;
15706;SDS011;7953;54.302;10.128;2024-03-25T08:15:30;2.57;;;1.30;;
15706;SDS011;7953;54.302;10.128;2024-03-25T08:17:56;3.73;;;1.80;;
15706;SDS011;7953;54.302;10.128;2024-03-25T08:20:22;8.43;;;1.97;;
15706;SDS011;7953;54.302;10.128;2024-03-25T08:22:49;3.87;;;1.70;;
15706;SDS011;7953;54.302;10.128;2024-03-25T08:25:15;6.73;;;1.83;;
15706;SDS011;7953;54.302;10.128;2024-03-25T08:27:41;4.87;;;1.80;;
15706;SDS011;7953;54.302;10.128;2024-03-25T08:30:07;8.10;;;1.70;;
15706;SDS011;7953;54.302;10.128;2024-03-25T08:32:34;4.40;;;2.00;;
15706;SDS011;7953;54.302;10.128;2024-03-25T08:35:00;9.77;;;1.70;;
15706;SDS011;7953;54.302;10.128;2024-03-25T08:37:25;4.70;;;1.90;;
15706;SDS011;7953;54.302;10.128;2024-03-25T08:39:53;6.23;;;1.87;;
15706;SDS011;7953;54.302;10.128;2024-03-25T08:42:19;6.63;;;2.30;;
15706;SDS011;7953;54.302;10.128;2024-03-25T08:44:45;4.83;;;1.60;;
15706;SDS011;7953;54.302;10.128;2024-03-25T08:47:10;3.83;;;1.70;;
15706;SDS011;7953;54.302;10.128;2024-03-25T08:49:36;6.10;;;1.80;;
15706;SDS011;7953;54.302;10.128;2024-03-25T08:52:02;4.57;;;1.70;;
15706;SDS011;7953;54.302;10.128;2024-03-25T08:54:28;9.97;;;2.10;;
15706;SDS011;7953;54.302;10.128;2024-03-25T08:56:55;5.97;;;1.83;;
15706;SDS011;7953;54.302;10.128;2024-03-25T08:59:21;6.63;;;2.03;;
15706;SDS011;7953;54.302;10.128;2024-03-25T09:01:47;6.20;;;1.80;;
15706;SDS011;7953;54.302;10.128;2024-03-25T09:04:13;2.47;;;1.90;;
15706;SDS011;7953;54.302;10.128;2024-03-25T09:06:39;8.97;;;1.70;;
15706;SDS011;7953;54.302;10.128;2024-03-25T09:09:05;4.20;;;1.80;;
15706;SDS011;7953;54.302;10.128;2024-03-25T09:11:49;4.67;;;1.83;;
15706;SDS011;7953;54.302;10.128;2024-03-25T09:14:16;3.70;;;1.53;;
15706;SDS011;7953;54.302;10.128;2024-03-25T09:16:42;5.73;;;1.70;;
15706;SDS011;7953;54.302;10.128;2024-03-25T09:19:07;5.43;;;1.90;;
15706;SDS011;7953;54.302;10.128;2024-03-25T09:21:33;8.63;;;2.07;;
15706;SDS011;7953;54.302;10.128;2024-03-25T09:23:59;8.73;;;2.30;;
15706;SDS011;7953;54.302;10.128;2024-03-25T09:26:25;5.33;;;1.50;;
15706;SDS011;7953;54.302;10.128;2024-03-25T09:28:51;4.27;;;1.90;;
15706;SDS011;7953;54.302;10.128;2024-03-25T09:31:18;4.20;;;2.23;;
15706;SDS011;7953;54.302;10.128;2024-03-25T09:33:44;3.93;;;1.63;;
15706;SDS011;7953;54.302;10.128;2024-03-25T09:36:10;5.63;;;1.57;;
15706;SDS011;7953;54.302;10.128;2024-03-25T09:38:36;6.23;;;2.20;;
15706;SDS011;7953;54.302;10.128;2024-03-25T09:41:02;4.57;;;1.90;;
15706;SDS011;7953;54.302;10.128;2024-03-25T09:43:30;3.43;;;1.40;;
15706;SDS011;7953;54.302;10.128;2024-03-25T09:46:02;4.07;;;1.53;;
15706;SDS011;7953;54.302;10.128;2024-03-25T09:48:29;5.50;;;1.70;;
15706;SDS011;7953;54.302;10.128;2024-03-25T09:50:56;6.03;;;1.83;;
15706;SDS011;7953;54.302;10.128;2024-03-25T09:53:22;4.23;;;1.53;;
15706;SDS011;7953;54.302;10.128;2024-03-25T09:55:48;4.77;;;1.60;;
15706;SDS011;7953;54.302;10.128;2024-03-25T09:58:14;5.17;;;2.00;;
15706;SDS011;7953;54.302;10.128;2024-03-25T10:00:42;4.77;;;1.60;;
15706;SDS011;7953;54.302;10.128;2024-03-25T10:03:08;5.13;;;1.90;;
15706;SDS011;7953;54.302;10.128;2024-03-25T10:05:35;5.70;;;2.00;;
15706;SDS011;7953;54.302;10.128;2024-03-25T10:08:03;5.70;;;2.00;;
15706;SDS011;7953;54.302;10.128;2024-03-25T10:10:29;4.10;;;1.80;;
15706;SDS011;7953;54.302;10.128;2024-03-25T10:12:55;4.37;;;2.10;;
15706;SDS011;7953;54.302;10.128;2024-03-25T10:15:21;7.10;;;1.83;;
15706;SDS011;7953;54.302;10.128;2024-03-25T10:17:49;7.20;;;2.20;;
15706;SDS011;7953;54.302;10.128;2024-03-25T10:20:15;5.30;;;2.00;;
15706;SDS011;7953;54.302;10.128;2024-03-25T10:22:42;8.40;;;1.80;;
15706;SDS011;7953;54.302;10.128;2024-03-25T10:25:18;5.30;;;1.63;;
15706;SDS011;7953;54.302;10.128;2024-03-25T10:27:52;4.90;;;2.10;;
15706;SDS011;7953;54.302;10.128;2024-03-25T10:30:19;5.40;;;1.80;;
15706;SDS011;7953;54.302;10.128;2024-03-25T10:32:45;5.43;;;2.00;;
15706;SDS011;7953;54.302;10.128;2024-03-25T10:35:11;7.80;;;2.03;;
15706;SDS011;7953;54.302;10.128;2024-03-25T10:37:38;4.33;;;1.80;;
15706;SDS011;7953;54.302;10.128;2024-03-25T10:40:06;8.77;;;2.27;;
15706;SDS011;7953;54.302;10.128;2024-03-25T10:42:35;5.47;;;2.27;;
15706;SDS011;7953;54.302;10.128;2024-03-25T10:45:04;10.10;;;2.40;;
15706;SDS011;7953;54.302;10.128;2024-03-25T10:47:33;9.97;;;2.23;;
15706;SDS011;7953;54.302;10.128;2024-03-25T10:50:02;13.00;;;2.60;;
15706;SDS011;7953;54.302;10.128;2024-03-25T10:52:33;8.70;;;2.90;;
15706;SDS011;7953;54.302;10.128;2024-03-25T10:54:59;10.83;;;2.73;;
15706;SDS011;7953;54.302;10.128;2024-03-25T10:57:27;8.07;;;2.03;;
15706;SDS011;7953;54.302;10.128;2024-03-25T10:59:54;7.07;;;2.20;;
15706;SDS011;7953;54.302;10.128;2024-03-25T11:02:22;10.23;;;2.43;;
15706;SDS011;7953;54.302;10.128;2024-03-25T11:04:48;6.23;;;2.10;;
15706;SDS011;7953;54.302;10.128;2024-03-25T11:07:15;8.53;;;2.13;;
15706;SDS011;7953;54.302;10.128;2024-03-25T11:09:42;5.97;;;2.33;;
15706;SDS011;7953;54.302;10.128;2024-03-25T11:12:09;5.13;;;2.00;;
15706;SDS011;7953;54.302;10.128;2024-03-25T11:14:37;4.83;;;1.33;;
15706;SDS011;7953;54.302;10.128;2024-03-25T11:17:13;6.23;;;1.70;;
15706;SDS011;7953;54.302;10.128;2024-03-25T11:19:40;4.97;;;1.77;;
15706;SDS011;7953;54.302;10.128;2024-03-25T11:22:07;8.57;;;2.03;;
15706;SDS011;7953;54.302;10.128;2024-03-25T11:24:34;8.20;;;1.90;;
15706;SDS011;7953;54.302;10.128;2024-03-25T11:27:01;5.97;;;2.37;;
15706;SDS011;7953;54.302;10.128;2024-03-25T11:29:27;5.00;;;1.53;;
15706;SDS011;7953;54.302;10.128;2024-03-25T11:31:54;6.30;;;1.97;;
15706;SDS011;7953;54.302;10.128;2024-03-25T11:34:23;10.37;;;2.03;;
15706;SDS011;7953;54.302;10.128;2024-03-25T11:36:49;7.03;;;1.70;;
15706;SDS011;7953;54.302;10.128;2024-03-25T11:39:16;4.87;;;1.97;;
15706;SDS011;7953;54.302;10.128;2024-03-25T11:41:42;6.33;;;1.63;;
15706;SDS011;7953;54.302;10.128;2024-03-25T11:44:08;3.20;;;1.90;;
15706;SDS011;7953;54.302;10.128;2024-03-25T11:46:36;5.87;;;2.03;;
15706;SDS011;7953;54.302;10.128;2024-03-25T11:49:03;6.43;;;1.77;;
15706;SDS011;7953;54.302;10.128;2024-03-25T11:51:30;5.73;;;1.37;;
15706;SDS011;7953;54.302;10.128;2024-03-25T11:53:56;6.47;;;1.60;;
15706;SDS011;7953;54.302;10.128;2024-03-25T11:56:22;3.77;;;1.80;;
15706;SDS011;7953;54.302;10.128;2024-03-25T11:58:48;5.43;;;1.63;;
15706;SDS011;7953;54.302;10.128;2024-03-25T12:01:14;5.67;;;1.90;;
15706;SDS011;7953;54.302;10.128;2024-03-25T12:03:40;5.87;;;1.77;;
15706;SDS011;7953;54.302;10.128;2024-03-25T12:06:07;4.10;;;1.30;;
15706;SDS011;7953;54.302;10.128;2024-03-25T12:08:33;3.93;;;1.50;;
15706;SDS011;7953;54.302;10.128;2024-03-25T12:10:59;3.60;;;1.50;;
15706;SDS011;7953;54.302;10.128;2024-03-25T12:13:44;5.20;;;1.73;;
15706;SDS011;7953;54.302;10.128;2024-03-25T12:16:10;4.97;;;1.50;;
15706;SDS011;7953;54.302;10.128;2024-03-25T12:18:39;7.53;;;2.20;;
15706;SDS011;7953;54.302;10.128;2024-03-25T12:21:06;6.80;;;2.23;;
15706;SDS011;7953;54.302;10.128;2024-03-25T12:23:33;3.57;;;1.60;;
15706;SDS011;7953;54.302;10.128;2024-03-25T12:25:59;3.73;;;1.90;;
15706;SDS011;7953;54.302;10.128;2024-03-25T12:28:26;8.10;;;2.03;;
15706;SDS011;7953;54.302;10.128;2024-03-25T12:30:52;4.33;;;1.50;;
15706;SDS011;7953;54.302;10.128;2024-03-25T12:33:19;4.50;;;1.60;;
15706;SDS011;7953;54.302;10.128;2024-03-25T12:35:45;5.43;;;1.80;;
15706;SDS011;7953;54.302;10.128;2024-03-25T12:38:22;6.60;;;1.73;;
15706;SDS011;7953;54.302;10.128;2024-03-25T12:40:49;3.03;;;1.50;;
15706;SDS011;7953;54.302;10.128;2024-03-25T12:43:15;11.07;;;2.43;;
15706;SDS011;7953;54.302;10.128;2024-03-25T12:45:41;4.43;;;1.53;;
15706;SDS011;7953;54.302;10.128;2024-03-25T12:48:07;5.80;;;1.40;;
15706;SDS011;7953;54.302;10.128;2024-03-25T12:50:32;4.67;;;1.50;;
15706;SDS011;7953;54.302;10.128;2024-03-25T12:52:58;8.37;;;3.60;;
15706;SDS011;7953;54.302;10.128;2024-03-25T12:55:25;11.13;;;8.07;;
15706;SDS011;7953;54.302;10.128;2024-03-25T12:57:51;8.37;;;4.63;;
15706;SDS011;7953;54.302;10.128;2024-03-25T13:00:17;5.17;;;2.80;;
15706;SDS011;7953;54.302;10.128;2024-03-25T13:02:43;5.27;;;2.40;;
15706;SDS011;7953;54.302;10.128;2024-03-25T13:05:09;7.10;;;3.70;;
15706;SDS011;7953;54.302;10.128;2024-03-25T13:07:35;3.73;;;1.67;;
15706;SDS011;7953;54.302;10.128;2024-03-25T13:10:01;4.87;;;2.07;;
15706;SDS011;7953;54.302;10.128;2024-03-25T13:12:29;7.00;;;1.20;;
15706;SDS011;7953;54.302;10.128;2024-03-25T13:14:55;2.73;;;1.83;;
15706;SDS011;7953;54.302;10.128;2024-03-25T13:17:21;6.77;;;2.00;;
15706;SDS011;7953;54.302;10.128;2024-03-25T13:19:47;4.43;;;1.47;;
15706;SDS011;7953;54.302;10.128;2024-03-25T13:22:12;5.80;;;1.80;;
15706;SDS011;7953;54.302;10.128;2024-03-25T13:24:38;5.57;;;1.60;;
15706;SDS011;7953;54.302;10.128;2024-03-25T13:27:04;6.10;;;1.87;;
15706;SDS011;7953;54.302;10.128;2024-03-25T13:29:32;6.13;;;1.87;;
15706;SDS011;7953;54.302;10.128;2024-03-25T13:31:57;8.07;;;2.13;;
15706;SDS011;7953;54.302;10.128;2024-03-25T13:34:23;6.43;;;1.80;;
15706;SDS011;7953;54.302;10.128;2024-03-25T13:36:49;4.50;;;1.60;;
15706;SDS011;7953;54.302;10.128;2024-03-25T13:39:15;5.70;;;1.70;;
15706;SDS011;7953;54.302;10.128;2024-03-25T13:41:41;4.47;;;1.73;;
15706;SDS011;7953;54.302;10.128;2024-03-25T13:44:07;7.43;;;1.90;;
15706;SDS011;7953;54.302;10.128;2024-03-25T13:46:34;10.13;;;2.23;;
15706;SDS011;7953;54.302;10.128;2024-03-25T13:49:00;7.07;;;2.00;;
15706;SDS011;7953;54.302;10.128;2024-03-25T13:51:25;7.37;;;1.77;;
15706;SDS011;7953;54.302;10.128;2024-03-25T13:53:51;5.97;;;1.80;;
15706;SDS011;7953;54.302;10.128;2024-03-25T13:56:17;5.47;;;1.90;;
15706;SDS011;7953;54.302;10.128;2024-03-25T13:58:43;4.97;;;1.70;;
15706;SDS011;7953;54.302;10.128;2024-03-25T14:01:09;6.33;;;1.30;;
15706;SDS011;7953;54.302;10.128;2024-03-25T14:03:36;6.63;;;1.40;;
15706;SDS011;7953;54.302;10.128;2024-03-25T14:06:02;6.70;;;2.03;;
15706;SDS011;7953;54.302;10.128;2024-03-25T14:08:28;4.77;;;1.10;;
15706;SDS011;7953;54.302;10.128;2024-03-25T14:10:57;4.70;;;1.70;;
15706;SDS011;7953;54.302;10.128;2024-03-25T14:13:24;4.77;;;1.73;;
15706;SDS011;7953;54.302;10.128;2024-03-25T14:15:50;3.97;;;1.50;;
15706;SDS011;7953;54.302;10.128;2024-03-25T14:18:16;4.17;;;1.63;;
15706;SDS011;7953;54.302;10.128;2024-03-25T14:20:43;5.77;;;1.73;;
15706;SDS011;7953;54.302;10.128;2024-03-25T14:23:09;5.53;;;2.10;;
15706;SDS011;7953;54.302;10.128;2024-03-25T14:25:34;4.37;;;1.53;;
15706;SDS011;7953;54.302;10.128;2024-03-25T14:28:00;5.77;;;1.90;;
15706;SDS011;7953;54.302;10.128;2024-03-25T14:30:26;3.10;;;1.50;;
15706;SDS011;7953;54.302;10.128;2024-03-25T14:32:52;4.23;;;1.80;;
15706;SDS011;7953;54.302;10.128;2024-03-25T14:35:18;3.90;;;1.27;;
15706;SDS011;7953;54.302;10.128;2024-03-25T14:37:45;4.33;;;1.37;;
15706;SDS011;7953;54.302;10.128;2024-03-25T14:40:11;5.20;;;1.30;;
15706;SDS011;7953;54.302;10.128;2024-03-25T14:42:38;5.63;;;1.30;;
15706;SDS011;7953;54.302;10.128;2024-03-25T14:45:04;3.53;;;1.03;;